Thunder radar more information blitzortung!


Radar de pluja more information rain snow radar


Visita la nostra xarxa de llocs de meteo:

Template documentation
and downloads

And another site



Wind From: 11-12-2017 11:00 Until: 14:59 warning for: Wind Level: Yellow info button

Pagina Historial Weather Underground text

Diari Resum Juny 26, 2017 Unitats:  Mètric    Imperial   Tant
« Previous Dia
SegĂźent Dia »
Diari Setmana Mensual Anual Personalitzada
  Maxima: Minima: Media:
Temperatura: 34.6 °C 20.4 °C 28.5 °C
Punt de rosada: 18.9 °C 9.6 °C 13.8 °C
Humitat: 86 % 25 % 44 %
Wind Speed: 27.8 km/h 0.0 km/h 7.2 km/h
RĂ fegues de vent: 27.8 km/h - -
Vent:- - South
Pression baro: 1012.8 hPa 1006.0 hPa -
Precipitacions: 0.0 mm    
Historical Graphs
 
 
Dades de taula per Juny 26, 2017
Temps Temperatura Punt de rosada Pression baro Vent Wind Speed RĂ fegues de vent Humitat Rainfall Rate (Hourly)
00:00 21.1 °C 18.7 °C 1011.7 hPa Calm   1.6 km/h 86 % 0.0 mm
00:01 23.2 °C 18.9 °C 1012.8 hPa ENE 3.7 km/h 3.7 km/h 77 % 0.0 mm
00:10 21.1 °C 18.5 °C 1011.7 hPa SSW 3.2 km/h 4.8 km/h 85 % 0.0 mm
00:20 20.9 °C 18.3 °C 1011.7 hPa SW 1.6 km/h 3.2 km/h 85 % 0.0 mm
00:30 20.8 °C 18.2 °C 1011.7 hPa WSW 3.2 km/h 4.8 km/h 85 % 0.0 mm
00:40 20.8 °C 18.2 °C 1012.8 hPa WSW 1.6 km/h 3.2 km/h 85 % 0.0 mm
00:50 20.8 °C 18.2 °C 1012.8 hPa Calm     85 % 0.0 mm
01:00 20.8 °C 18.2 °C 1011.7 hPa WSW 1.6 km/h 3.2 km/h 85 % 0.0 mm
01:10 20.8 °C 18.2 °C 1011.7 hPa SW 1.6 km/h 3.2 km/h 85 % 0.0 mm
01:20 20.8 °C 18.4 °C 1011.7 hPa SW 1.6 km/h 3.2 km/h 86 % 0.0 mm
01:30 20.8 °C 18.2 °C 1011.7 hPa NE 1.6 km/h 4.8 km/h 85 % 0.0 mm
01:40 20.7 °C 17.9 °C 1010.7 hPa Calm   1.6 km/h 84 % 0.0 mm
01:50 20.5 °C 17.7 °C 1010.7 hPa West 1.6 km/h 4.8 km/h 84 % 0.0 mm
02:00 20.4 °C 17.4 °C 1011.7 hPa West 1.6 km/h 4.8 km/h 83 % 0.0 mm
02:10 20.5 °C 17.5 °C 1010.0 hPa NE 11.3 km/h 11.3 km/h 83 % 0.0 mm
02:20 20.7 °C 17.9 °C 1010.0 hPa NE 3.2 km/h 14.5 km/h 84 % 0.0 mm
02:30 20.6 °C 17.8 °C 1009.0 hPa ENE 1.6 km/h 6.4 km/h 84 % 0.0 mm
02:40 20.6 °C 17.8 °C 1010.0 hPa WNW 3.2 km/h 3.2 km/h 84 % 0.0 mm
02:50 20.7 °C 17.7 °C 1010.0 hPa WSW 3.2 km/h 4.8 km/h 83 % 0.0 mm
03:00 20.7 °C 17.7 °C 1010.0 hPa SW 1.6 km/h 4.8 km/h 83 % 0.0 mm
03:10 20.6 °C 17.4 °C 1011.7 hPa SW 4.8 km/h 6.4 km/h 82 % 0.0 mm
03:20 20.7 °C 17.3 °C 1011.7 hPa SSW 9.7 km/h 9.7 km/h 81 % 0.0 mm
03:30 20.7 °C 17.3 °C 1011.7 hPa SW 3.2 km/h 6.4 km/h 81 % 0.0 mm
03:40 20.7 °C 17.1 °C 1010.7 hPa Calm   6.4 km/h 80 % 0.0 mm
03:50 20.9 °C 17.1 °C 1010.7 hPa NE 1.6 km/h 1.6 km/h 79 % 0.0 mm
04:00 21.2 °C 17.2 °C 1011.7 hPa NE 3.2 km/h 6.4 km/h 78 % 0.0 mm
04:10 21.9 °C 17.9 °C 1010.7 hPa NNE 8.0 km/h 9.7 km/h 78 % 0.0 mm
04:20 22.7 °C 18.4 °C 1010.7 hPa NE 8.0 km/h 12.9 km/h 77 % 0.0 mm
04:30 23.4 °C 18.7 °C 1011.7 hPa NE 4.8 km/h 8.0 km/h 75 % 0.0 mm
04:40 24.0 °C 18.8 °C 1009.0 hPa NE 4.8 km/h 8.0 km/h 73 % 0.0 mm
04:50 24.2 °C 18.2 °C 1009.0 hPa NE 8.0 km/h 12.9 km/h 69 % 0.0 mm
05:00 24.2 °C 17.7 °C 1010.0 hPa NE 9.7 km/h 14.5 km/h 67 % 0.0 mm
05:10 24.9 °C 18.1 °C 1010.0 hPa NE 4.8 km/h 8.0 km/h 66 % 0.0 mm
05:20 25.8 °C 17.7 °C 1010.0 hPa NE 4.8 km/h 8.0 km/h 61 % 0.0 mm
05:30 26.5 °C 17.6 °C 1009.0 hPa NE 4.8 km/h 8.0 km/h 58 % 0.0 mm
10:31 27.1 °C 17.0 °C 1008.0 hPa NE 6.4 km/h 6.4 km/h 54 % 0.0 mm
10:36 27.6 °C 16.2 °C 1008.0 hPa NNE 13.0 km/h 13.0 km/h 50 % 0.0 mm
10:41 27.5 °C 15.8 °C 1008.0 hPa NNW 16.9 km/h 16.9 km/h 49 % 0.0 mm
10:46 27.6 °C 15.9 °C 1008.0 hPa NE 8.7 km/h 8.7 km/h 49 % 0.0 mm
10:51 27.7 °C 16.3 °C 1008.0 hPa NE 9.7 km/h 9.7 km/h 50 % 0.0 mm
10:56 28.2 °C 16.8 °C 1008.0 hPa NE 5.6 km/h 5.6 km/h 50 % 0.0 mm
11:01 28.0 °C 16.3 °C 1008.0 hPa NNE 14.8 km/h 14.8 km/h 49 % 0.0 mm
11:06 28.4 °C 16.7 °C 1008.0 hPa NNE 10.3 km/h 10.3 km/h 49 % 0.0 mm
11:11 28.5 °C 16.7 °C 1008.0 hPa East 9.3 km/h 9.3 km/h 49 % 0.0 mm
11:17 28.3 °C 16.2 °C 1007.0 hPa ENE 9.3 km/h 9.3 km/h 48 % 0.0 mm
11:22 28.1 °C 16.1 °C 1007.0 hPa NNE 9.3 km/h 9.3 km/h 48 % 0.0 mm
11:27 28.8 °C 16.7 °C 1008.0 hPa NNE 9.3 km/h 9.3 km/h 48 % 0.0 mm
11:32 28.7 °C 16.6 °C 1008.0 hPa NNE 5.8 km/h 5.8 km/h 48 % 0.0 mm
11:37 28.5 °C 16.4 °C 1008.0 hPa East 9.3 km/h 9.3 km/h 48 % 0.0 mm
11:42 29.1 °C 16.6 °C 1008.0 hPa NNE 6.4 km/h 6.4 km/h 47 % 0.0 mm
11:47 29.1 °C 16.3 °C 1008.0 hPa ENE 5.6 km/h 5.6 km/h 46 % 0.0 mm
11:52 29.6 °C 17.1 °C 1008.0 hPa West 3.7 km/h 3.7 km/h 47 % 0.0 mm
11:57 30.0 °C 17.4 °C 1008.0 hPa NW 3.9 km/h 4.2 km/h 47 % 0.0 mm
12:02 30.3 °C 17.1 °C 1008.0 hPa SSE 5.6 km/h 5.6 km/h 45 % 0.0 mm
12:07 30.6 °C 16.9 °C 1008.0 hPa ESE 7.4 km/h 7.4 km/h 44 % 0.0 mm
12:12 30.4 °C 16.1 °C 1008.0 hPa SE 7.4 km/h 7.4 km/h 42 % 0.0 mm
12:17 30.9 °C 15.3 °C 1008.0 hPa ESE 5.0 km/h 5.0 km/h 39 % 0.0 mm
12:22 30.6 °C 15.8 °C 1008.0 hPa WSW 5.6 km/h 5.6 km/h 41 % 0.0 mm
12:23 30.6 °C 15.8 °C 1008.0 hPa WSW 5.6 km/h 5.6 km/h 41 % 0.0 mm
12:28 31.0 °C 15.8 °C 1008.0 hPa SSW 1.4 km/h   40 % 0.0 mm
12:33 31.0 °C 15.0 °C 1008.0 hPa ESE 5.6 km/h 5.6 km/h 38 % 0.0 mm
12:38 31.1 °C 14.3 °C 1008.0 hPa South 5.6 km/h 5.6 km/h 36 % 0.0 mm
12:43 32.1 °C 16.0 °C 1007.0 hPa East 2.6 km/h   38 % 0.0 mm
12:48 31.2 °C 14.8 °C 1007.0 hPa ENE 5.6 km/h 5.6 km/h 37 % 0.0 mm
12:53 31.2 °C 15.2 °C 1007.0 hPa NNE 7.4 km/h 7.4 km/h 38 % 0.0 mm
12:58 31.5 °C 15.1 °C 1008.0 hPa ESE 9.3 km/h 9.3 km/h 37 % 0.0 mm
13:03 31.5 °C 14.6 °C 1008.0 hPa NE 11.1 km/h 11.1 km/h 36 % 0.0 mm
13:08 31.3 °C 14.0 °C 1008.0 hPa SE 14.8 km/h 14.8 km/h 35 % 0.0 mm
13:13 31.1 °C 12.4 °C 1008.0 hPa SSE 20.4 km/h 20.4 km/h 32 % 0.0 mm
13:18 31.5 °C 12.8 °C 1008.0 hPa SE 9.3 km/h 13.0 km/h 32 % 0.0 mm
13:23 31.5 °C 12.3 °C 1008.0 hPa ESE 19.0 km/h 19.0 km/h 31 % 0.0 mm
13:28 32.1 °C 13.3 °C 1008.0 hPa SSW 11.1 km/h 11.1 km/h 32 % 0.0 mm
13:33 32.3 °C 14.0 °C 1008.0 hPa SSE 13.0 km/h 13.0 km/h 33 % 0.0 mm
13:38 32.0 °C 14.6 °C 1008.0 hPa East 14.8 km/h 14.8 km/h 35 % 0.0 mm
13:43 31.3 °C 13.6 °C 1008.0 hPa ESE 27.8 km/h 27.8 km/h 34 % 0.0 mm
13:48 31.7 °C 13.4 °C 1008.0 hPa SE 9.3 km/h 9.3 km/h 33 % 0.0 mm
13:53 31.9 °C 13.2 °C 1008.0 hPa ESE 12.6 km/h 12.6 km/h 32 % 0.0 mm
13:58 32.0 °C 13.2 °C 1008.0 hPa SW 11.1 km/h 11.1 km/h 32 % 0.0 mm
14:03 32.4 °C 13.6 °C 1008.0 hPa SSE 16.7 km/h 16.7 km/h 32 % 0.0 mm
14:08 31.7 °C 13.0 °C 1008.0 hPa ESE 16.7 km/h 16.7 km/h 32 % 0.0 mm
14:13 31.3 °C 12.2 °C 1008.0 hPa ESE 18.5 km/h 18.5 km/h 31 % 0.0 mm
14:18 31.8 °C 12.6 °C 1008.0 hPa East 13.0 km/h 13.0 km/h 31 % 0.0 mm
14:23 31.5 °C 12.3 °C 1008.0 hPa NNE 15.6 km/h 15.6 km/h 31 % 0.0 mm
14:28 31.9 °C 12.7 °C 1008.0 hPa SSE 14.8 km/h 14.8 km/h 31 % 0.0 mm
14:33 32.2 °C 12.4 °C 1008.0 hPa South 9.5 km/h 9.5 km/h 30 % 0.0 mm
14:38 32.9 °C 13.1 °C 1008.0 hPa South 7.4 km/h 7.4 km/h 30 % 0.0 mm
14:43 32.6 °C 13.3 °C 1008.0 hPa SW 9.0 km/h 9.0 km/h 31 % 0.0 mm
14:48 33.1 °C 12.7 °C 1008.0 hPa SE 9.3 km/h 9.3 km/h 29 % 0.0 mm
14:53 32.8 °C 12.9 °C 1008.0 hPa South 9.3 km/h 9.3 km/h 30 % 0.0 mm
14:58 32.9 °C 13.1 °C 1008.0 hPa South 7.4 km/h 7.4 km/h 30 % 0.0 mm
15:03 33.7 °C 13.2 °C 1008.0 hPa SW 11.1 km/h 11.1 km/h 29 % 0.0 mm
15:08 33.5 °C 13.0 °C 1008.0 hPa WSW 9.3 km/h 9.3 km/h 29 % 0.0 mm
15:13 33.6 °C 13.1 °C 1008.0 hPa West 11.1 km/h 11.1 km/h 29 % 0.0 mm
15:18 33.5 °C 13.0 °C 1008.0 hPa South 13.0 km/h 13.0 km/h 29 % 0.0 mm
15:23 33.2 °C 12.8 °C 1008.0 hPa SSW 11.1 km/h 11.1 km/h 29 % 0.0 mm
15:28 32.8 °C 11.9 °C 1008.0 hPa SW 12.2 km/h 12.2 km/h 28 % 0.0 mm
15:33 32.5 °C 11.6 °C 1008.0 hPa SSE 9.3 km/h 9.3 km/h 28 % 0.0 mm
15:38 32.9 °C 12.0 °C 1008.0 hPa SSW 13.0 km/h 13.0 km/h 28 % 0.0 mm
15:43 32.9 °C 12.0 °C 1008.0 hPa SSE 16.7 km/h 16.7 km/h 28 % 0.0 mm
15:48 32.8 °C 11.9 °C 1008.0 hPa SW 11.1 km/h 11.1 km/h 28 % 0.0 mm
15:53 33.1 °C 12.2 °C 1008.0 hPa SW 7.4 km/h 7.4 km/h 28 % 0.0 mm
15:58 33.4 °C 12.4 °C 1008.0 hPa WSW 9.3 km/h 9.3 km/h 28 % 0.0 mm
16:03 33.2 °C 12.2 °C 1008.0 hPa South 5.6 km/h 5.6 km/h 28 % 0.0 mm
16:08 33.3 °C 12.3 °C 1008.0 hPa WSW 7.4 km/h 7.4 km/h 28 % 0.0 mm
16:13 33.4 °C 11.8 °C 1008.0 hPa South 8.7 km/h 8.7 km/h 27 % 0.0 mm
16:18 33.9 °C 12.3 °C 1008.0 hPa SW 7.4 km/h 7.4 km/h 27 % 0.0 mm
16:23 34.0 °C 12.4 °C 1008.0 hPa West 7.4 km/h 7.4 km/h 27 % 0.0 mm
16:28 33.9 °C 12.3 °C 1007.0 hPa SW 14.8 km/h 14.8 km/h 27 % 0.0 mm
16:33 34.1 °C 12.4 °C 1007.0 hPa SW 7.4 km/h 7.4 km/h 27 % 0.0 mm
16:38 34.1 °C 12.4 °C 1007.0 hPa WSW 14.8 km/h 14.8 km/h 27 % 0.0 mm
16:43 33.6 °C 12.0 °C 1007.0 hPa WSW 7.4 km/h 7.4 km/h 27 % 0.0 mm
16:48 33.9 °C 11.7 °C 1007.0 hPa WSW 7.4 km/h 7.4 km/h 26 % 0.0 mm
16:53 34.6 °C 12.9 °C 1007.0 hPa South 5.6 km/h 5.6 km/h 27 % 0.0 mm
16:58 34.2 °C 11.9 °C 1007.0 hPa ESE 3.7 km/h 3.7 km/h 26 % 0.0 mm
17:03 34.2 °C 11.9 °C 1007.0 hPa SSE 3.7 km/h 3.7 km/h 26 % 0.0 mm
17:08 34.5 °C 12.2 °C 1007.0 hPa South 7.4 km/h 7.4 km/h 26 % 0.0 mm
17:13 33.4 °C 11.3 °C 1007.0 hPa ESE 9.3 km/h 9.3 km/h 26 % 0.0 mm
17:18 32.9 °C 10.8 °C 1007.0 hPa ENE 9.3 km/h 9.3 km/h 26 % 0.0 mm
17:23 32.5 °C 10.5 °C 1007.0 hPa SW 16.7 km/h 16.7 km/h 26 % 0.0 mm
17:28 32.6 °C 10.6 °C 1007.0 hPa SE 13.0 km/h 13.0 km/h 26 % 0.0 mm
17:33 32.9 °C 10.8 °C 1007.0 hPa East 9.3 km/h 9.3 km/h 26 % 0.0 mm
17:38 32.6 °C 10.0 °C 1007.0 hPa SSE 9.3 km/h 9.3 km/h 25 % 0.0 mm
17:43 32.4 °C 10.4 °C 1007.0 hPa ESE 10.0 km/h 10.0 km/h 26 % 0.0 mm
17:48 32.1 °C 9.6 °C 1007.0 hPa SE 9.7 km/h 9.7 km/h 25 % 0.0 mm
17:53 32.4 °C 9.8 °C 1007.0 hPa SSW 9.3 km/h 9.3 km/h 25 % 0.0 mm
17:58 32.8 °C 10.2 °C 1006.0 hPa SSW 7.4 km/h 7.4 km/h 25 % 0.0 mm
18:03 32.4 °C 10.4 °C 1006.0 hPa East 9.3 km/h 9.3 km/h 26 % 0.0 mm
18:08 32.1 °C 9.6 °C 1006.0 hPa ESE 6.9 km/h 6.9 km/h 25 % 0.0 mm
18:13 32.3 °C 9.8 °C 1006.0 hPa East 7.4 km/h 7.4 km/h 25 % 0.0 mm
18:18 32.2 °C 9.7 °C 1006.0 hPa East 9.3 km/h 9.3 km/h 25 % 0.0 mm
18:23 32.5 °C 10.5 °C 1006.0 hPa SW 9.3 km/h 9.3 km/h 26 % 0.0 mm
18:28 32.9 °C 10.8 °C 1006.0 hPa SSE 7.4 km/h 7.4 km/h 26 % 0.0 mm
18:33 32.8 °C 10.8 °C 1006.0 hPa South 5.6 km/h 5.6 km/h 26 % 0.0 mm
18:38 33.1 °C 10.4 °C 1006.0 hPa SW 7.4 km/h 7.4 km/h 25 % 0.0 mm
18:43 32.7 °C 10.7 °C 1006.0 hPa SSW 5.6 km/h 5.6 km/h 26 % 0.0 mm
18:48 32.7 °C 10.7 °C 1006.0 hPa SW 5.6 km/h 5.6 km/h 26 % 0.0 mm
18:53 32.4 °C 10.4 °C 1006.0 hPa SW 9.5 km/h 9.5 km/h 26 % 0.0 mm
18:58 32.2 °C 10.3 °C 1006.0 hPa WSW 9.3 km/h 9.3 km/h 26 % 0.0 mm
19:03 31.8 °C 9.9 °C 1006.0 hPa SW 13.0 km/h 13.0 km/h 26 % 0.0 mm
19:08 31.5 °C 10.2 °C 1006.0 hPa SSW 9.7 km/h 9.7 km/h 27 % 0.0 mm
19:13 31.4 °C 10.2 °C 1006.0 hPa WSW 7.4 km/h 7.4 km/h 27 % 0.0 mm
19:18 31.4 °C 10.2 °C 1006.0 hPa SW 9.5 km/h 9.5 km/h 27 % 0.0 mm
19:23 31.4 °C 10.2 °C 1006.0 hPa SSW 7.4 km/h 7.4 km/h 27 % 0.0 mm
19:28 31.1 °C 9.9 °C 1006.0 hPa WSW 9.3 km/h 9.3 km/h 27 % 0.0 mm
19:33 31.1 °C 9.9 °C 1006.0 hPa WSW 15.8 km/h 15.8 km/h 27 % 0.0 mm
19:38 31.0 °C 9.8 °C 1006.0 hPa WSW 7.4 km/h 7.6 km/h 27 % 0.0 mm
19:43 30.8 °C 9.6 °C 1007.0 hPa SW 9.3 km/h 9.3 km/h 27 % 0.0 mm
19:48 30.7 °C 10.1 °C 1007.0 hPa SSW 9.3 km/h 9.3 km/h 28 % 0.0 mm
19:53 30.6 °C 10.0 °C 1007.0 hPa South 11.1 km/h 11.1 km/h 28 % 0.0 mm
19:58 30.5 °C 9.9 °C 1006.0 hPa SW 5.6 km/h 5.6 km/h 28 % 0.0 mm
20:03 30.3 °C 9.8 °C 1006.0 hPa SSW 10.0 km/h 10.0 km/h 28 % 0.0 mm
20:08 30.1 °C 9.6 °C 1006.0 hPa SSW 7.4 km/h 7.4 km/h 28 % 0.0 mm
20:13 29.9 °C 9.9 °C 1007.0 hPa WSW 9.3 km/h 9.3 km/h 29 % 0.0 mm
20:18 29.7 °C 9.8 °C 1007.0 hPa SW 9.3 km/h 9.5 km/h 29 % 0.0 mm
20:19 29.7 °C 10.3 °C 1007.0 hPa SSW 11.1 km/h 11.1 km/h 30 % 0.0 mm
20:24 29.4 °C 10.0 °C 1007.0 hPa SSW 9.3 km/h 9.3 km/h 30 % 0.0 mm
20:29 29.3 °C 10.4 °C 1007.0 hPa South 9.3 km/h 9.3 km/h 31 % 0.0 mm
20:34 29.1 °C 10.2 °C 1007.0 hPa SSW 11.1 km/h 11.1 km/h 31 % 0.0 mm
20:39 28.8 °C 10.9 °C 1007.0 hPa West 11.1 km/h 11.1 km/h 33 % 0.0 mm
20:44 28.7 °C 11.3 °C 1007.0 hPa ESE 5.3 km/h 5.3 km/h 34 % 0.0 mm
20:49 28.6 °C 11.6 °C 1007.0 hPa SW 1.9 km/h   35 % 0.0 mm
20:51 28.5 °C 11.6 °C 1007.0 hPa Calm     35 % 0.0 mm
20:56 28.3 °C 11.4 °C 1007.0 hPa SW 7.4 km/h 7.4 km/h 35 % 0.0 mm
21:01 28.2 °C 11.7 °C 1007.0 hPa WSW 6.1 km/h 6.1 km/h 36 % 0.0 mm
21:05 28.0 °C 11.9 °C 1007.0 hPa SW 5.6 km/h 5.6 km/h 37 % 0.0 mm
21:11 27.9 °C 12.3 °C 1007.0 hPa South 3.7 km/h 3.7 km/h 38 % 0.0 mm
21:16 27.7 °C 12.1 °C 1007.0 hPa West 1.9 km/h 1.9 km/h 38 % 0.0 mm
21:20 27.5 °C 12.3 °C 1007.0 hPa WSW 5.3 km/h 5.3 km/h 39 % 0.0 mm
21:21 27.5 °C 12.3 °C 1007.0 hPa WSW 7.4 km/h 7.4 km/h 39 % 0.0 mm
21:26 27.3 °C 12.5 °C 1007.0 hPa SW 5.0 km/h 5.0 km/h 40 % 0.0 mm
21:31 27.1 °C 12.7 °C 1007.0 hPa SE 1.9 km/h 1.9 km/h 41 % 0.0 mm
21:36 26.9 °C 13.3 °C 1007.0 hPa SW 1.9 km/h 1.9 km/h 43 % 0.0 mm
21:41 26.8 °C 13.2 °C 1007.0 hPa WSW 2.3 km/h   43 % 0.0 mm
21:46 26.7 °C 13.1 °C 1008.0 hPa SW 7.4 km/h 7.4 km/h 43 % 0.0 mm
21:51 26.5 °C 13.3 °C 1008.0 hPa SW 4.7 km/h 4.7 km/h 44 % 0.0 mm
21:56 26.4 °C 13.2 °C 1008.0 hPa SW 1.9 km/h 1.9 km/h 44 % 0.0 mm
22:01 26.3 °C 13.4 °C 1008.0 hPa WSW 1.9 km/h 1.9 km/h 45 % 0.0 mm
22:06 26.1 °C 13.6 °C 1008.0 hPa Calm     46 % 0.0 mm
22:11 26.0 °C 13.5 °C 1008.0 hPa Calm     46 % 0.0 mm
22:16 25.9 °C 13.7 °C 1008.0 hPa South 7.4 km/h 7.4 km/h 47 % 0.0 mm
22:21 25.8 °C 13.6 °C 1008.0 hPa SW 3.7 km/h 3.7 km/h 47 % 0.0 mm
22:26 25.7 °C 13.6 °C 1008.0 hPa WSW 3.7 km/h 3.7 km/h 47 % 0.0 mm
22:31 25.6 °C 13.8 °C 1008.0 hPa WSW 3.7 km/h 3.7 km/h 48 % 0.0 mm
22:36 25.5 °C 13.7 °C 1008.0 hPa SW 2.3 km/h 2.6 km/h 48 % 0.0 mm
22:41 25.5 °C 14.0 °C 1008.0 hPa WSW 3.9 km/h 3.9 km/h 49 % 0.0 mm
22:46 25.4 °C 13.9 °C 1008.0 hPa SW 3.7 km/h 3.7 km/h 49 % 0.0 mm
22:50 22.0 °C 16.1 °C 1008.0 hPa NE 4.8 km/h 4.8 km/h 69 % 0.0 mm
22:51 25.3 °C 14.1 °C 1008.0 hPa West 3.7 km/h 3.7 km/h 50 % 0.0 mm
22:56 25.3 °C 14.1 °C 1008.0 hPa WSW 3.7 km/h 3.7 km/h 50 % 0.0 mm
23:00 21.9 °C 16.2 °C 1008.0 hPa NE 3.2 km/h 3.2 km/h 70 % 0.0 mm
23:01 25.2 °C 14.1 °C 1008.0 hPa WNW 5.6 km/h 5.6 km/h 50 % 0.0 mm
23:06 25.1 °C 14.3 °C 1008.0 hPa WSW 4.7 km/h 4.7 km/h 51 % 0.0 mm
23:10 21.8 °C 16.1 °C 1008.0 hPa Calm   3.2 km/h 70 % 0.0 mm
23:11 25.0 °C 14.4 °C 1008.0 hPa WNW 3.7 km/h 3.7 km/h 52 % 0.0 mm
23:16 25.0 °C 14.4 °C 1008.0 hPa West 3.7 km/h 3.7 km/h 52 % 0.0 mm
23:20 21.7 °C 16.0 °C 1007.0 hPa Calm   3.2 km/h 70 % 0.0 mm
23:21 24.9 °C 14.9 °C 1008.0 hPa WSW 5.6 km/h 5.6 km/h 54 % 0.0 mm
23:26 24.8 °C 14.8 °C 1008.0 hPa West 3.7 km/h 3.7 km/h 54 % 0.0 mm
23:30 21.6 °C 16.1 °C 1007.0 hPa Calm   1.6 km/h 71 % 0.0 mm
23:31 24.8 °C 15.2 °C 1008.0 hPa WSW 3.9 km/h 3.9 km/h 55 % 0.0 mm
23:36 24.7 °C 15.1 °C 1008.0 hPa WNW 3.7 km/h 3.7 km/h 55 % 0.0 mm
23:40 21.4 °C 15.9 °C 1008.0 hPa NE 1.6 km/h 3.2 km/h 71 % 0.0 mm
23:41 24.6 °C 14.9 °C 1008.0 hPa WSW 5.6 km/h 5.6 km/h 55 % 0.0 mm
23:46 24.6 °C 15.2 °C 1008.0 hPa West 3.7 km/h 3.9 km/h 56 % 0.0 mm
23:50 21.3 °C 15.8 °C 1008.0 hPa Calm   1.6 km/h 71 % 0.0 mm
23:51 24.5 °C 15.2 °C 1008.0 hPa West 3.7 km/h 3.7 km/h 56 % 0.0 mm
23:56 24.5 °C 15.2 °C 1008.0 hPa WSW 5.6 km/h 5.6 km/h 56 % 0.0 mm
Meteo Sesrovires
Elogis d' Weather Underground - 3.5 mb

Guio original per  Jim McMurry - jmcmurry@mwt.net Adaptat per a la plantilla per  Wim van der Kuil - Leuven-Template.eu

Trobareu la nostra informacio del temps tambe a:

Weather Underground

AWEKAS